Time;durP1;ratioP1;P1;durP2;ratioP2;P2;SDS_P1;SDS_P2;PMS_P1;PMS_P2;Temp;Humidity;BMP_temperature;BMP_pressure;BME280_temperature;BME280_humidity;BME280_pressure;Samples;Min_cycle;Max_cycle;Signal;HPM_P1;HPM_P2
2022/09/22 00:01:02;;;;;;;9.13;5.03;;;;;;;9.87;77.72;102549.25;6242291;23;20038;-80
2022/09/22 00:03:32;;;;;;;10.85;4.82;;;;;;;9.86;77.79;102544.81;6240345;23;20031;-81
2022/09/22 00:06:07;;;;;;;6.88;4.82;;;;;;;9.80;77.95;102534.13;6214826;23;20438;-81
2022/09/22 00:08:34;;;;;;;9.00;5.00;;;;;;;9.80;78.70;102546.13;6240090;23;20008;-80
2022/09/22 00:11:05;;;;;;;6.95;4.63;;;;;;;9.79;78.34;102538.91;6215315;23;20016;-80
2022/09/22 00:13:35;;;;;;;6.80;5.05;;;;;;;9.71;77.84;102536.94;6243789;23;20380;-81
2022/09/22 00:16:01;;;;;;;8.95;5.00;;;;;;;9.69;78.38;102533.66;6242492;23;20015;-80
2022/09/22 00:18:28;;;;;;;8.35;4.40;;;;;;;9.72;78.26;102539.41;6241108;23;20004;-80
2022/09/22 00:20:54;;;;;;;8.60;4.95;;;;;;;9.74;77.70;102533.50;6241786;23;20094;-80
2022/09/22 00:23:23;;;;;;;7.93;4.65;;;;;;;9.70;77.67;102529.72;6213462;23;20098;-81
2022/09/22 00:25:49;;;;;;;9.63;5.05;;;;;;;9.68;78.25;102532.03;6243167;23;20008;-80
2022/09/22 00:28:19;;;;;;;8.77;4.93;;;;;;;9.65;77.67;102524.28;6240923;23;20023;-81
2022/09/22 00:30:44;;;;;;;9.07;6.07;;;;;;;9.60;78.13;102530.06;6213812;23;20016;-80
2022/09/22 00:33:10;;;;;;;7.38;4.97;;;;;;;9.63;78.05;102529.38;6211697;23;20027;-80
2022/09/22 00:35:37;;;;;;;6.40;4.22;;;;;;;9.56;77.81;102519.53;6212071;23;20036;-80
2022/09/22 00:38:06;;;;;;;6.85;4.45;;;;;;;9.61;77.70;102526.09;6238468;23;20020;-81
2022/09/22 00:40:34;;;;;;;4.93;4.38;;;;;;;9.55;78.23;102523.50;6210687;23;20104;-81
2022/09/22 00:43:18;;;;;;;13.63;5.65;;;;;;;9.59;78.13;102520.00;6212037;23;20016;-80
2022/09/22 00:45:49;;;;;;;6.47;4.47;;;;;;;9.49;78.38;102519.22;6214911;23;20012;-81
2022/09/22 00:48:15;;;;;;;7.72;5.28;;;;;;;9.50;77.89;102518.06;6241509;23;20047;-80
2022/09/22 00:50:40;;;;;;;10.27;5.20;;;;;;;9.53;77.76;102514.59;6214545;23;20050;-80
2022/09/22 00:53:11;;;;;;;8.95;4.97;;;;;;;9.52;78.08;102510.16;6213806;23;20003;-81
2022/09/22 00:55:45;;;;;;;8.65;4.50;;;;;;;9.41;77.98;102503.28;6189775;23;20467;-81
2022/09/22 00:58:15;;;;;;;6.60;4.32;;;;;;;9.48;77.61;102516.75;6185756;23;20384;-80
2022/09/22 01:00:41;;;;;;;6.85;4.82;;;;;;;9.40;78.20;102503.59;6187926;23;20016;-80
2022/09/22 01:03:10;;;;;;;7.93;4.13;;;;;;;9.31;77.79;102501.63;6211957;23;20346;-81
2022/09/22 01:05:37;;;;;;;5.88;4.03;;;;;;;9.35;78.36;102493.41;6212816;23;20044;-80
2022/09/22 01:08:03;;;;;;;5.00;4.13;;;;;;;9.41;77.24;102497.69;6188654;23;20009;-80
2022/09/22 01:10:28;;;;;;;5.72;4.03;;;;;;;9.32;77.69;102486.53;6186109;23;20389;-80
2022/09/22 01:13:29;;;;;;;5.07;3.65;;;;;;;9.29;77.96;102487.16;6211964;23;20464;-80
2022/09/22 01:16:11;;;;;;;8.75;3.95;;;;;;;9.35;77.64;102479.44;6211312;23;20494;-81
2022/09/22 01:18:43;;;;;;;5.13;4.00;;;;;;;9.32;78.07;102480.13;6211548;23;20008;-81
2022/09/22 01:21:20;;;;;;;7.00;4.28;;;;;;;9.33;78.20;102484.53;6208745;23;20009;-80
2022/09/22 01:24:01;;;;;;;6.63;4.00;;;;;;;9.31;77.63;102489.63;6184060;23;20004;-81
2022/09/22 01:26:38;;;;;;;8.63;4.57;;;;;;;9.35;78.20;102479.44;6210240;23;20015;-80
2022/09/22 01:29:19;;;;;;;6.78;4.30;;;;;;;9.31;78.18;102482.06;6181995;23;20433;-80
2022/09/22 01:32:06;;;;;;;6.53;4.32;;;;;;;9.30;77.69;102482.41;6207387;23;20008;-81
2022/09/22 01:34:42;;;;;;;8.68;4.88;;;;;;;9.27;78.28;102469.09;6209773;23;20000;-81
2022/09/22 01:37:23;;;;;;;8.07;4.50;;;;;;;9.21;77.69;102476.00;6181496;23;20040;-81
2022/09/22 01:40:20;;;;;;;4.80;4.20;;;;;;;9.19;77.69;102469.91;6213133;23;20064;-80
2022/09/22 01:42:56;;;;;;;6.55;3.92;;;;;;;9.22;78.19;102466.47;6186804;23;20027;-83
2022/09/22 01:45:28;;;;;;;5.78;4.03;;;;;;;9.20;77.79;102463.19;6186303;23;20433;-81
2022/09/22 01:48:15;;;;;;;4.40;3.78;;;;;;;9.21;78.21;102476.00;6183085;23;20162;-81
2022/09/22 01:50:49;;;;;;;4.97;4.05;;;;;;;9.20;78.02;102477.16;6209569;23;20016;-80
2022/09/22 01:53:19;;;;;;;11.85;4.82;;;;;;;9.19;78.00;102465.13;6208755;23;20013;-82
2022/09/22 01:55:50;;;;;;;4.28;3.80;;;;;;;9.12;77.70;102465.63;6183933;23;20020;-80
2022/09/22 01:58:29;;;;;;;5.65;4.32;;;;;;;9.16;78.08;102472.22;6209547;23;20348;-80
2022/09/22 02:01:06;;;;;;;5.63;4.57;;;;;;;9.13;77.96;102475.69;6181426;23;20017;-80
2022/09/22 02:03:44;;;;;;;6.00;4.90;;;;;;;9.06;78.71;102460.56;6182389;23;20012;-80
2022/09/22 02:06:18;;;;;;;7.68;4.70;;;;;;;9.05;78.35;102456.94;6185514;23;20012;-80
2022/09/22 02:08:49;;;;;;;6.88;4.20;;;;;;;9.03;77.91;102461.22;6182409;23;20020;-81
2022/09/22 02:11:15;;;;;;;7.38;4.65;;;;;;;8.97;77.80;102452.19;6181735;23;20070;-81
2022/09/22 02:13:45;;;;;;;7.30;4.57;;;;;;;9.01;78.14;102453.16;6209007;23;20036;-80
2022/09/22 02:16:17;;;;;;;7.38;4.97;;;;;;;8.87;77.91;102424.56;6210664;23;20016;-82
2022/09/22 02:18:50;;;;;;;6.43;4.03;;;;;;;8.98;77.76;102453.84;6211052;23;20473;-81
2022/09/22 02:21:16;;;;;;;;;;;;;;;9.01;78.29;102455.16;6184512;23;20031;-81
2022/09/22 02:23:43;;;;;;;5.65;4.10;;;;;;;8.98;77.95;102448.25;6206901;23;19908;-82
2022/09/22 02:26:11;;;;;;;7.03;4.30;;;;;;;8.96;77.63;102444.97;6184667;23;20091;-80
2022/09/22 02:28:39;;;;;;;6.72;4.90;;;;;;;8.97;77.39;102445.78;6181755;23;20023;-81
2022/09/22 02:31:08;;;;;;;5.95;3.67;;;;;;;8.93;78.00;102437.22;6209039;23;20345;-81
2022/09/22 02:33:39;;;;;;;4.90;3.92;;;;;;;8.89;78.37;102427.88;6184619;23;20345;-80
2022/09/22 02:36:30;;;;;;;5.20;3.70;;;;;;;8.93;77.90;102442.81;6184768;23;20441;-80
2022/09/22 02:39:30;;;;;;;5.82;4.05;;;;;;;8.90;77.89;102435.91;6162002;23;20035;-81
2022/09/22 02:42:07;;;;;;;6.28;4.25;;;;;;;8.87;78.36;102441.34;6167466;23;20017;-81
2022/09/22 02:44:48;;;;;;;5.40;3.72;;;;;;;8.82;77.46;102421.97;6185709;23;20445;-82
2022/09/22 02:47:26;;;;;;;6.75;4.00;;;;;;;8.84;78.32;102430.84;6211481;23;20059;-81
2022/09/22 02:49:52;;;;;;;5.85;4.13;;;;;;;8.86;78.00;102428.53;6185452;23;20425;-81
2022/09/22 02:52:19;;;;;;;9.02;4.38;;;;;;;8.78;78.45;102427.38;6184923;23;20470;-81
2022/09/22 02:54:45;;;;;;;6.75;4.65;;;;;;;8.75;77.80;102420.47;6183191;23;20016;-81
2022/09/22 02:57:10;;;;;;;5.85;4.55;;;;;;;8.81;77.77;102429.50;6183862;23;20527;-80
2022/09/22 02:59:35;;;;;;;5.57;4.57;;;;;;;8.74;77.82;102415.22;6184738;23;20016;-81
2022/09/22 03:02:01;;;;;;;5.10;4.50;;;;;;;8.71;78.11;102416.69;6184765;23;20123;-81
2022/09/22 03:04:26;;;;;;;6.53;5.20;;;;;;;8.69;78.43;102421.78;6183206;23;20005;-81
2022/09/22 03:06:51;;;;;;;7.88;4.65;;;;;;;8.70;77.36;102417.84;6185318;23;20016;-81
2022/09/22 03:09:17;;;;;;;5.22;4.57;;;;;;;8.68;78.23;102414.53;6210497;23;20016;-81
2022/09/22 03:11:43;;;;;;;4.68;4.15;;;;;;;8.61;78.13;102405.03;6211023;23;20039;-81
2022/09/22 03:14:08;;;;;;;9.05;5.93;;;;;;;8.64;77.66;102413.56;6185437;23;20008;-81
2022/09/22 03:16:34;;;;;;;5.40;4.35;;;;;;;8.67;77.71;102421.28;6210018;23;20874;-81
2022/09/22 03:18:59;;;;;;;5.32;4.82;;;;;;;8.66;77.59;102413.22;6182899;23;20039;-81
2022/09/22 03:21:24;;;;;;;8.27;4.85;;;;;;;8.69;77.70;102407.81;6184974;23;20452;-80
2022/09/22 03:23:50;;;;;;;7.10;4.57;;;;;;;8.61;77.95;102403.06;6181808;23;20130;-81
2022/09/22 03:26:15;;;;;;;6.00;4.65;;;;;;;8.61;77.48;102405.84;6208823;23;20083;-81
2022/09/22 03:28:42;;;;;;;5.22;4.30;;;;;;;8.61;77.53;102405.84;6208035;23;20004;-81
2022/09/22 03:31:09;;;;;;;10.60;5.45;;;;;;;8.59;77.57;102402.56;6208633;23;20040;-81
2022/09/22 03:33:34;;;;;;;6.85;5.32;;;;;;;8.55;77.65;102399.59;6208855;23;20001;-81
2022/09/22 03:35:59;;;;;;;5.95;4.65;;;;;;;8.58;77.27;102400.09;6185435;23;20063;-81
2022/09/22 03:38:25;;;;;;;6.30;5.03;;;;;;;8.52;77.85;102402.25;6209746;23;20341;-81
2022/09/22 03:40:51;;;;;;;6.93;5.10;;;;;;;8.57;77.60;102393.69;6185275;23;20051;-81
2022/09/22 03:43:17;;;;;;;7.13;5.22;;;;;;;8.44;77.60;102391.88;6212438;23;20090;-81
2022/09/22 03:45:43;;;;;;;5.50;4.70;;;;;;;8.51;77.75;102398.59;6184796;23;20005;-81
2022/09/22 03:48:08;;;;;;;9.65;5.50;;;;;;;8.47;77.50;102394.81;6210879;23;20111;-80
2022/09/22 03:50:34;;;;;;;6.50;4.57;;;;;;;8.52;77.47;102402.25;6208369;23;20012;-81
2022/09/22 03:52:59;;;;;;;6.68;5.15;;;;;;;8.48;77.98;102404.03;6181866;23;20020;-81
2022/09/22 03:55:25;;;;;;;10.23;5.43;;;;;;;8.46;77.51;102401.56;6181723;23;20020;-81
2022/09/22 03:57:50;;;;;;;6.82;5.85;;;;;;;8.42;77.78;102399.75;6184917;23;20023;-81
2022/09/22 04:00:16;;;;;;;6.97;4.68;;;;;;;8.44;77.69;102397.47;6182552;23;20103;-81
2022/09/22 04:02:42;;;;;;;7.78;5.97;;;;;;;8.43;77.89;102387.44;6210098;23;20004;-81
2022/09/22 04:05:08;;;;;;;5.50;5.00;;;;;;;8.35;77.89;102391.84;6183585;23;20013;-81
2022/09/22 04:07:34;;;;;;;9.05;4.63;;;;;;;8.42;77.91;102394.19;6208937;23;20464;-82
2022/09/22 04:10:00;;;;;;;6.22;4.95;;;;;;;8.39;77.12;102395.63;6181314;23;20004;-82
2022/09/22 04:12:25;;;;;;;9.40;5.38;;;;;;;8.38;77.94;102387.56;6182861;23;20032;-81
2022/09/22 04:14:50;;;;;;;7.28;5.22;;;;;;;8.35;77.60;102378.72;6183036;23;20001;-81
2022/09/22 04:17:19;;;;;;;10.52;5.20;;;;;;;8.30;77.71;102378.84;6184009;23;20095;-81
2022/09/22 04:19:44;;;;;;;6.13;4.78;;;;;;;8.31;78.17;102380.50;6209035;23;20344;-81
2022/09/22 04:22:10;;;;;;;6.63;4.75;;;;;;;8.31;78.25;102391.66;6182691;23;20004;-81
2022/09/22 04:24:35;;;;;;;8.25;5.00;;;;;;;8.28;77.64;102364.41;6209030;23;20015;-81
2022/09/22 04:27:01;;;;;;;5.43;4.60;;;;;;;8.27;77.76;102379.50;6182485;23;20067;-81
2022/09/22 04:29:26;;;;;;;5.22;4.35;;;;;;;8.14;78.06;102361.78;6184431;23;20043;-82
2022/09/22 04:31:51;;;;;;;7.97;4.68;;;;;;;8.23;77.40;102366.53;6210094;23;20066;-82
2022/09/22 04:34:17;;;;;;;7.05;4.63;;;;;;;8.24;77.52;102368.19;6182062;23;20467;-82
2022/09/22 04:36:42;;;;;;;6.22;5.05;;;;;;;8.22;77.54;102364.88;6183704;23;20008;-82
2022/09/22 04:39:08;;;;;;;8.80;4.97;;;;;;;8.22;77.26;102365.75;6183623;23;20047;-82
2022/09/22 04:41:33;;;;;;;5.65;4.93;;;;;;;8.27;77.29;102370.34;6211370;23;20033;-81
2022/09/22 04:43:59;;;;;;;5.90;4.72;;;;;;;8.22;77.06;102368.53;6183928;23;20023;-82
2022/09/22 04:46:26;;;;;;;6.10;4.25;;;;;;;8.25;77.30;102364.25;6211877;23;20016;-81
2022/09/22 04:48:51;;;;;;;6.63;4.60;;;;;;;8.20;77.57;102368.03;6209953;23;20341;-81
2022/09/22 04:51:16;;;;;;;6.25;5.15;;;;;;;8.20;77.78;102367.19;6183836;23;20012;-81
2022/09/22 04:53:42;;;;;;;6.82;5.50;;;;;;;8.17;77.18;102363.09;6211536;23;20004;-81
2022/09/22 04:56:07;;;;;;;5.53;4.75;;;;;;;8.19;77.22;102365.56;6211575;23;20026;-82
2022/09/22 04:58:33;;;;;;;7.05;5.43;;;;;;;8.16;77.34;102367.03;6213632;23;20093;-82
2022/09/22 05:01:05;;;;;;;8.30;5.05;;;;;;;8.13;77.64;102368.47;6242653;23;20022;-81
2022/09/22 05:03:31;;;;;;;6.22;5.55;;;;;;;8.11;77.76;102369.97;6243632;23;20050;-83
2022/09/22 05:05:56;;;;;;;5.35;4.43;;;;;;;8.00;77.71;102351.91;6217008;23;20401;-81
2022/09/22 05:08:22;;;;;;;8.45;6.70;;;;;;;8.12;77.37;102371.63;6216024;23;20008;-82
2022/09/22 05:10:47;;;;;;;6.93;4.82;;;;;;;8.11;77.31;102373.56;6213852;23;20020;-81
2022/09/22 05:13:14;;;;;;;7.55;5.15;;;;;;;8.02;77.07;102371.91;6215502;23;20098;-82
2022/09/22 05:15:40;;;;;;;5.72;4.82;;;;;;;8.05;77.59;102380.47;6213162;23;20012;-81
2022/09/22 05:18:06;;;;;;;7.25;5.15;;;;;;;8.07;77.87;102382.91;6212662;23;20065;-82
2022/09/22 05:20:32;;;;;;;7.00;4.32;;;;;;;8.01;77.47;102381.41;6213477;23;20408;-82
2022/09/22 05:22:57;;;;;;;6.50;4.97;;;;;;;7.99;77.48;102378.13;6239236;23;20008;-81
2022/09/22 05:25:22;;;;;;;6.18;4.45;;;;;;;8.01;77.51;102379.47;6240944;23;20456;-81
2022/09/22 05:27:53;;;;;;;5.70;5.00;;;;;;;8.06;77.42;102386.84;6241197;23;20000;-82
2022/09/22 05:30:23;;;;;;;5.68;4.50;;;;;;;7.96;77.08;102382.38;6213218;23;20019;-82
2022/09/22 05:32:49;;;;;;;6.28;4.85;;;;;;;8.01;77.42;102384.19;6241306;23;20462;-81
2022/09/22 05:35:18;;;;;;;6.60;5.43;;;;;;;7.98;77.78;102390.44;6213086;23;20107;-82
2022/09/22 05:37:45;;;;;;;6.25;4.68;;;;;;;8.00;77.62;102386.16;6238925;23;20010;-81
2022/09/22 05:40:12;;;;;;;6.50;4.80;;;;;;;7.88;77.49;102389.56;6209068;23;20043;-81
2022/09/22 05:42:45;;;;;;;9.10;5.53;;;;;;;7.95;77.85;102391.91;6237371;23;20321;-82
2022/09/22 05:45:11;;;;;;;5.05;4.32;;;;;;;7.97;77.56;102386.00;6235608;23;20016;-82
2022/09/22 05:47:37;;;;;;;5.25;4.15;;;;;;;7.92;77.94;102382.19;6211319;23;20455;-82
2022/09/22 05:50:03;;;;;;;6.18;5.38;;;;;;;7.83;78.30;102370.22;6238777;23;20337;-83
2022/09/22 05:52:28;;;;;;;5.10;3.80;;;;;;;7.96;77.86;102387.97;6235199;23;20482;-82
2022/09/22 05:54:54;;;;;;;5.78;5.03;;;;;;;7.93;78.17;102386.66;6190285;23;20021;-82
2022/09/22 05:57:24;;;;;;;5.47;4.07;;;;;;;7.93;78.27;102381.06;6206141;23;20460;-82
2022/09/22 05:59:50;;;;;;;7.65;4.03;;;;;;;7.85;78.33;102384.66;6177862;23;20054;-82
2022/09/22 06:02:15;;;;;;;4.70;4.00;;;;;;;7.88;78.36;102384.00;6203115;23;20051;-82
2022/09/22 06:04:41;;;;;;;6.18;4.90;;;;;;;7.88;78.80;102395.16;6204748;23;20036;-82
2022/09/22 06:07:06;;;;;;;6.68;4.70;;;;;;;7.87;78.11;102379.56;6178988;23;20012;-82
2022/09/22 06:09:31;;;;;;;6.45;4.68;;;;;;;7.93;78.53;102383.88;6178648;23;20488;-82
2022/09/22 06:11:57;;;;;;;6.15;4.78;;;;;;;7.96;81.80;102387.16;6207221;23;20028;-80
2022/09/22 06:14:23;;;;;;;10.88;6.00;;;;;;;8.16;79.75;102372.59;6178468;23;20032;-79
2022/09/22 06:16:48;;;;;;;12.05;7.28;;;;;;;8.17;81.61;102388.19;6180783;23;20096;-79
2022/09/22 06:19:13;;;;;;;8.30;6.20;;;;;;;8.07;80.97;102377.31;6177800;23;20000;-81
2022/09/22 06:21:39;;;;;;;10.93;6.53;;;;;;;8.01;82.13;102379.47;6205138;23;20094;-79
2022/09/22 06:24:05;;;;;;;10.00;5.78;;;;;;;7.98;81.18;102380.09;6201242;23;20023;-79
2022/09/22 06:26:31;;;;;;;12.25;7.82;;;;;;;7.99;83.81;102383.69;6179813;23;20012;-80
2022/09/22 06:28:56;;;;;;;9.75;6.32;;;;;;;7.84;82.62;102371.88;6181563;23;20021;-83
2022/09/22 06:31:22;;;;;;;5.80;5.13;;;;;;;7.97;81.48;102372.91;6208037;23;20455;-84
2022/09/22 06:33:47;;;;;;;6.95;6.25;;;;;;;7.98;81.62;102376.50;6209525;23;20097;-83
2022/09/22 06:36:26;;;;;;;6.63;5.30;;;;;;;8.02;81.54;102374.69;6209850;23;20046;-83
2022/09/22 06:38:53;;;;;;;6.85;5.32;;;;;;;8.06;80.67;102381.28;6206388;23;20083;-83
2022/09/22 06:41:18;;;;;;;9.05;5.85;;;;;;;8.09;80.23;102372.25;6212445;23;20019;-82
2022/09/22 06:43:46;;;;;;;10.70;6.45;;;;;;;8.12;80.68;102380.78;6186220;23;20004;-83
2022/09/22 06:46:12;;;;;;;8.70;5.80;;;;;;;8.15;80.57;102382.09;6184269;23;20017;-83
2022/09/22 06:48:38;;;;;;;8.45;5.85;;;;;;;8.24;80.06;102385.75;6213123;23;20009;-83
2022/09/22 06:51:04;;;;;;;8.60;5.47;;;;;;;8.24;80.59;102380.19;6185335;23;20056;-83
2022/09/22 06:53:29;;;;;;;9.90;5.95;;;;;;;8.26;79.19;102386.22;6214161;23;20004;-84
2022/09/22 06:55:55;;;;;;;8.27;6.55;;;;;;;8.24;80.18;102380.19;6239945;22;20015;-84
2022/09/22 06:58:21;;;;;;;7.63;5.50;;;;;;;8.28;80.16;102385.91;6243218;23;20034;-83
2022/09/22 07:00:46;;;;;;;8.93;6.28;;;;;;;8.29;79.43;102388.38;6242661;23;20012;-83
2022/09/22 07:03:24;;;;;;;9.25;7.18;;;;;;;8.35;80.62;102391.84;6216375;23;20016;-84
2022/09/22 07:06:00;;;;;;;11.77;6.65;;;;;;;8.38;79.67;102391.19;6214784;23;20437;-83
2022/09/22 07:08:27;;;;;;;9.27;6.93;;;;;;;8.37;80.29;102392.34;6215482;23;20432;-83
2022/09/22 07:10:59;;;;;;;10.50;6.50;;;;;;;8.40;80.30;102393.66;6241255;23;20028;-83
2022/09/22 07:13:28;;;;;;;8.85;7.20;;;;;;;8.35;82.64;102386.25;6215632;23;20525;-83
2022/09/22 07:16:02;;;;;;;10.25;7.35;;;;;;;8.31;81.22;102380.50;6239307;23;20313;-84
2022/09/22 07:18:28;;;;;;;11.73;9.75;;;;;;;8.23;87.43;102378.53;6241068;23;20000;-83
2022/09/22 07:21:01;;;;;;;11.23;7.47;;;;;;;8.22;87.43;102376.88;6213786;23;20103;-83
2022/09/22 07:23:28;;;;;;;14.98;12.00;;;;;;;8.15;93.89;102377.34;6242089;23;20035;-83
2022/09/22 07:25:55;;;;;;;10.38;8.13;;;;;;;8.09;88.11;102367.50;6240499;23;20012;-84
2022/09/22 07:28:21;;;;;;;18.60;14.57;;;;;;;8.21;94.63;102386.38;6240131;23;20016;-83
2022/09/22 07:30:46;;;;;;;11.48;8.77;;;;;;;8.31;88.92;102379.69;6215262;23;20756;-83
2022/09/22 07:33:12;;;;;;;19.80;14.00;;;;;;;8.33;93.59;102382.97;6242726;23;20035;-83
2022/09/22 07:35:37;;;;;;;19.60;14.20;;;;;;;8.32;94.41;102379.34;6241611;23;20012;-84
2022/09/22 07:38:03;;;;;;;22.92;14.70;;;;;;;8.38;95.20;102363.28;6213815;23;20004;-83
2022/09/22 07:40:29;;;;;;;19.73;15.90;;;;;;;8.57;95.60;102365.78;6241374;23;20019;-83
2022/09/22 07:42:54;;;;;;;27.05;16.73;;;;;;;8.56;95.26;102369.75;6214024;23;20085;-84
2022/09/22 07:45:22;;;;;;;19.33;15.55;;;;;;;8.57;95.16;102374.16;6213812;23;20340;-83
2022/09/22 07:50:31;;;;;;;25.33;18.30;;;;;;;8.65;96.67;102372.53;6241788;23;20034;-84
2022/09/22 07:52:57;;;;;;;19.38;14.45;;;;;;;8.68;94.86;102372.66;6213823;23;20103;-84
2022/09/22 07:55:23;;;;;;;20.38;17.33;;;;;;;8.79;95.64;102362.03;6239963;22;20090;-83
2022/09/22 07:57:57;;;;;;;17.00;14.45;;;;;;;8.89;94.56;102370.03;6214537;23;20095;-84
2022/09/22 08:00:31;;;;;;;23.45;17.70;;;;;;;9.05;95.69;102364.78;6213706;23;20019;-84
2022/09/22 08:02:57;;;;;;;25.20;18.40;;;;;;;9.29;93.87;102375.38;6240796;23;20385;-83
2022/09/22 08:05:27;;;;;;;22.90;17.67;;;;;;;9.26;93.49;102352.91;6241424;23;20044;-84
2022/09/22 08:07:57;;;;;;;24.42;19.17;;;;;;;9.42;93.42;102367.16;6214093;23;20424;-83
2022/09/22 08:10:23;;;;;;;24.73;18.13;;;;;;;9.48;93.04;102358.25;6213001;23;20012;-84
2022/09/22 08:12:53;;;;;;;29.42;20.25;;;;;;;9.68;92.87;102364.28;6214489;23;20543;-84
2022/09/22 08:15:21;;;;;;;23.23;18.98;;;;;;;9.73;92.09;102350.91;6245304;23;20015;-83
2022/09/22 08:17:47;;;;;;;25.67;17.77;;;;;;;9.75;92.87;102353.38;6216868;23;20028;-83
2022/09/22 08:20:15;;;;;;;25.42;18.83;;;;;;;9.81;92.64;102352.03;6242670;23;20019;-83
2022/09/22 08:22:42;;;;;;;26.80;18.98;;;;;;;9.79;92.53;102348.75;6213472;23;20008;-84
2022/09/22 08:25:11;;;;;;;26.35;17.20;;;;;;;10.30;89.54;102355.22;6240158;23;20008;-84
2022/09/22 08:27:38;;;;;;;26.83;15.70;;;;;;;10.35;87.96;102341.03;6239612;23;20036;-84
2022/09/22 08:30:06;;;;;;;28.95;18.23;;;;;;;10.50;87.82;102348.00;6238200;23;20135;-83
2022/09/22 08:32:34;;;;;;;22.15;15.23;;;;;;;10.63;87.54;102348.88;6238630;23;20038;-83
2022/09/22 08:35:02;;;;;;;21.48;14.18;;;;;;;10.69;86.07;102353.09;6211404;23;20000;-83
2022/09/22 08:37:28;;;;;;;19.25;14.13;;;;;;;10.91;85.45;102353.88;6213286;23;20015;-83
2022/09/22 08:39:53;;;;;;;19.00;13.50;;;;;;;10.88;85.96;102354.56;6213238;23;20020;-83
2022/09/22 08:42:21;;;;;;;16.63;13.45;;;;;;;11.04;85.28;102351.94;6212658;23;20008;-84
2022/09/22 08:45:03;;;;;;;19.38;13.68;;;;;;;11.05;86.48;102360.03;6214676;23;20012;-83
2022/09/22 08:53:51;;;;;;;16.92;11.70;;;;;;;11.68;82.15;102347.75;6238000;22;20007;-83
2022/09/22 08:56:29;;;;;;;15.85;12.10;;;;;;;11.81;82.20;102352.22;6213920;23;20015;-83
2022/09/22 08:59:11;;;;;;;15.30;10.85;;;;;;;12.10;80.77;102356.78;6213038;23;20024;-83
2022/09/22 09:02:00;;;;;;;15.05;11.18;;;;;;;12.06;81.04;102352.22;6213144;23;20340;-83
2022/09/22 09:05:02;;;;;;;18.85;11.05;;;;;;;12.36;80.20;102356.38;6214348;23;20446;-83
2022/09/22 09:07:42;;;;;;;16.60;9.83;;;;;;;12.43;77.70;102357.78;6242973;23;20458;-83
2022/09/22 09:10:48;;;;;;;10.10;8.43;;;;;;;12.63;75.48;102353.97;6241024;23;20004;-83
2022/09/22 09:13:30;;;;;;;12.38;8.57;;;;;;;12.91;74.82;102355.97;6242251;23;20035;-83
2022/09/22 09:16:20;;;;;;;11.98;7.82;;;;;;;12.81;75.48;102352.50;6244356;23;20023;-83
2022/09/22 09:18:59;;;;;;;16.05;8.32;;;;;;;12.82;77.36;102337.28;6243315;23;20075;-82
2022/09/22 09:21:27;;;;;;;17.23;9.18;;;;;;;12.97;76.65;102343.31;6218107;23;20442;-83
2022/09/22 09:23:58;;;;;;;11.13;7.78;;;;;;;13.31;75.16;102349.47;6218468;23;20012;-84
2022/09/22 09:26:26;;;;;;;9.88;7.82;;;;;;;13.34;74.73;102343.94;6220000;23;20095;-82
2022/09/22 09:28:56;;;;;;;10.00;6.85;;;;;;;13.22;72.79;102347.63;6217586;23;20035;-84
2022/09/22 09:31:46;;;;;;;13.68;7.40;;;;;;;13.55;70.62;102349.28;6242091;23;20075;-84
2022/09/22 09:34:16;;;;;;;12.20;6.43;;;;;;;13.49;70.54;102341.50;6244972;23;20062;-84
2022/09/22 09:36:47;;;;;;;9.68;6.70;;;;;;;13.71;71.29;102335.22;6243538;23;20487;-84
2022/09/22 09:39:20;;;;;;;13.35;6.70;;;;;;;13.67;71.31;102339.97;6215998;23;20087;-84
2022/09/22 09:41:47;;;;;;;11.57;6.53;;;;;;;13.86;71.60;102330.78;6216995;23;20040;-84
2022/09/22 09:44:38;;;;;;;10.10;6.95;;;;;;;13.94;72.11;102332.56;6240188;23;20008;-85
2022/09/22 09:47:18;;;;;;;12.45;6.72;;;;;;;14.00;69.28;102335.94;6213601;23;20438;-84
2022/09/22 09:49:46;;;;;;;7.90;6.05;;;;;;;14.18;68.71;102327.88;6244347;23;20011;-84
2022/09/22 09:52:12;;;;;;;8.75;5.97;;;;;;;14.24;66.27;102323.59;6217099;23;20397;-83
2022/09/22 09:54:40;;;;;;;11.35;6.75;;;;;;;14.27;67.91;102317.22;6243820;22;20047;-84
2022/09/22 09:57:19;;;;;;;12.38;6.50;;;;;;;14.27;68.38;102322.03;6213020;23;20019;-84
2022/09/22 10:00:30;;;;;;;7.05;5.10;;;;;;;14.40;67.70;102321.56;6239260;23;20039;-84
2022/09/22 10:03:13;;;;;;;8.90;5.40;;;;;;;14.68;66.85;102326.19;6215142;23;20015;-84
2022/09/22 10:05:39;;;;;;;;;;;;;;;14.60;67.96;102341.31;6241047;23;20391;-85
2022/09/22 10:08:18;;;;;;;7.38;5.32;;;;;;;14.43;67.09;102329.25;6215178;23;19907;-84
2022/09/22 10:10:45;;;;;;;5.57;4.18;;;;;;;14.61;66.42;102337.31;6215183;23;20353;-84
2022/09/22 10:13:10;;;;;;;10.93;4.43;;;;;;;14.97;64.76;102332.41;6210655;23;20317;-85
2022/09/22 10:15:38;;;;;;;6.15;4.20;;;;;;;14.95;64.12;102337.59;6212079;23;20016;-84
2022/09/22 10:18:25;;;;;;;6.72;4.43;;;;;;;15.22;64.13;102330.88;6240043;23;20067;-84
2022/09/22 10:21:14;;;;;;;10.85;4.82;;;;;;;15.03;64.59;102328.06;6239570;23;20012;-84
2022/09/22 10:23:44;;;;;;;8.90;5.03;;;;;;;15.16;63.74;102329.56;6213007;23;20506;-84
2022/09/22 10:26:17;;;;;;;7.95;4.68;;;;;;;15.09;61.64;102329.41;6212923;23;20016;-85
2022/09/22 10:28:43;;;;;;;6.38;4.55;;;;;;;15.00;62.85;102326.00;6213855;23;20000;-85
2022/09/22 10:31:20;;;;;;;7.90;4.40;;;;;;;15.46;64.38;102328.88;6212148;23;20490;-84
2022/09/22 10:33:59;;;;;;;7.78;4.30;;;;;;;15.72;62.01;102316.03;6209719;23;20016;-84
2022/09/22 10:36:31;;;;;;;8.38;4.03;;;;;;;15.99;60.69;102320.47;6209659;23;20004;-84
2022/09/22 10:38:57;;;;;;;6.05;4.30;;;;;;;15.68;60.46;102320.75;6210638;23;20020;-84
2022/09/22 10:41:28;;;;;;;7.70;4.82;;;;;;;15.92;59.96;102320.38;6237985;23;20007;-84
2022/09/22 10:44:00;;;;;;;12.38;5.53;;;;;;;16.01;60.33;102309.63;6237067;23;20016;-84
2022/09/22 10:46:50;;;;;;;13.65;5.40;;;;;;;16.13;59.84;102307.75;6239973;23;20023;-83
2022/09/22 10:49:43;;;;;;;7.10;4.57;;;;;;;16.12;60.29;102311.78;6238529;23;20440;-84
2022/09/22 10:52:08;;;;;;;;;;;;;;;16.06;59.88;102305.66;6239621;23;20514;-84
2022/09/22 10:54:40;;;;;;;5.53;4.05;;;;;;;16.18;58.56;102296.94;6217488;23;19911;-83
2022/09/22 10:57:31;;;;;;;9.77;3.90;;;;;;;15.92;60.08;102288.50;6237303;23;20012;-84
2022/09/22 11:00:09;;;;;;;8.48;3.95;;;;;;;16.38;57.61;102291.13;6232764;23;20327;-84
2022/09/22 11:03:05;;;;;;;7.22;3.38;;;;;;;16.12;59.21;102289.19;6238960;22;20053;-84
2022/09/22 11:12:18;;;;;;;8.57;3.25;;;;;;;16.13;58.61;102276.69;6241033;23;20027;-84
2022/09/22 11:15:05;;;;;;;6.78;4.05;;;;;;;15.86;60.25;102276.72;6235429;22;20012;-81
2022/09/22 11:17:55;;;;;;;5.55;4.10;;;;;;;16.54;57.42;102279.66;6238488;22;20482;-79
2022/09/22 11:20:33;;;;;;;5.68;4.25;;;;;;;16.96;55.67;102273.69;6239360;23;20098;-79
2022/09/22 11:23:36;;;;;;;8.88;3.45;;;;;;;16.66;55.77;102283.03;6238595;22;20222;-79
2022/09/22 11:26:07;;;;;;;6.00;2.75;;;;;;;17.05;51.67;102270.53;6239398;23;20008;-79
2022/09/22 11:29:08;;;;;;;8.32;2.95;;;;;;;17.03;54.40;102258.78;6238193;23;20379;-80
2022/09/22 11:31:42;;;;;;;7.45;3.70;;;;;;;16.78;53.54;102267.81;6239863;23;20141;-79
2022/09/22 11:34:20;;;;;;;8.40;4.03;;;;;;;17.39;54.31;102259.13;6235514;23;20320;-86
2022/09/22 11:36:48;;;;;;;9.30;3.22;;;;;;;17.79;52.81;102261.06;6235909;23;20415;-85
2022/09/22 11:39:47;;;;;;;7.07;3.40;;;;;;;17.26;53.43;102256.59;6234784;23;20265;-86
2022/09/22 11:42:24;;;;;;;6.63;3.67;;;;;;;17.59;52.43;102254.84;6236866;23;20510;-86
2022/09/22 11:45:21;;;;;;;7.68;4.15;;;;;;;18.03;52.50;102253.94;6234904;22;20008;-85
2022/09/22 11:48:01;;;;;;;7.05;3.22;;;;;;;17.86;53.33;102246.16;6237862;23;20111;-86
2022/09/22 11:50:39;;;;;;;5.50;3.25;;;;;;;18.05;52.83;102240.19;6238893;23;20091;-86
2022/09/22 11:53:25;;;;;;;4.25;3.05;;;;;;;18.07;54.45;102240.59;6239737;23;20087;-86
2022/09/22 11:56:38;;;;;;;6.32;2.85;;;;;;;18.05;49.53;102234.50;6238673;23;20436;-86
2022/09/22 11:59:12;;;;;;;5.77;2.47;;;;;;;18.42;48.71;102230.59;6217800;23;20008;-92
2022/09/22 12:01:40;;;;;;;7.13;3.63;;;;;;;18.35;48.53;102227.75;6239599;23;20023;-91
2022/09/22 12:04:35;;;;;;;5.78;2.80;;;;;;;17.81;50.66;102235.16;6240731;23;20318;-90